Time;durP1;ratioP1;P1;durP2;ratioP2;P2;SDS_P1;SDS_P2;PMS_P1;PMS_P2;Temp;Humidity;BMP_temperature;BMP_pressure;BME280_temperature;BME280_humidity;BME280_pressure;Samples;Min_cycle;Max_cycle;Signal;HPM_P1;HPM_P2
2021/03/10 11:10:28;;;;;;;34.70;17.48;;;10.70;86.40;;;;;;6010521;23;20077;-77
2021/03/10 11:12:53;;;;;;;37.10;18.23;;;10.70;86.30;;;;;;4931143;29;20055;-73
2021/03/10 11:15:19;;;;;;;30.55;18.50;;;10.80;87.20;;;;;;4930264;29;20062;-77
2021/03/10 11:17:45;;;;;;;32.00;18.83;;;10.90;87.30;;;;;;4916882;29;20038;-77
2021/03/10 11:20:11;;;;;;;34.42;18.75;;;10.90;86.80;;;;;;4931696;29;20485;-76
2021/03/10 11:22:37;;;;;;;37.15;18.45;;;11.10;86.80;;;;;;4933339;29;20027;-78
2021/03/10 11:25:07;;;;;;;34.50;18.48;;;11.10;85.00;;;;;;4931268;29;20046;-77
2021/03/10 11:27:33;;;;;;;32.47;18.75;;;11.30;85.70;;;;;;4933000;29;20019;-77
2021/03/10 11:29:59;;;;;;;35.38;20.88;;;11.30;85.50;;;;;;4931782;29;20509;-77
2021/03/10 11:32:25;;;;;;;36.20;19.90;;;11.50;86.60;;;;;;4915732;29;20111;-78
2021/03/10 11:34:50;;;;;;;35.45;20.58;;;11.50;85.50;;;;;;4932508;29;20516;-77
2021/03/10 11:37:19;;;;;;;34.85;19.85;;;11.60;83.80;;;;;;4915644;29;20107;-77
2021/03/10 11:39:45;;;;;;;32.97;20.25;;;11.60;84.00;;;;;;4929645;29;20183;-77
2021/03/10 11:42:14;;;;;;;35.45;20.55;;;11.60;84.00;;;;;;4934063;29;20015;-77
2021/03/10 11:44:39;;;;;;;34.25;20.85;;;11.60;83.30;;;;;;4930247;29;20047;-77
2021/03/10 11:47:05;;;;;;;33.15;19.40;;;11.60;82.90;;;;;;4915460;29;20031;-81
2021/03/10 11:49:31;;;;;;;33.20;19.60;;;11.70;81.00;;;;;;4930843;29;20040;-73
2021/03/10 11:51:56;;;;;;;31.73;19.60;;;11.70;81.20;;;;;;4929765;29;20031;-73
2021/03/10 11:54:24;;;;;;;33.60;18.45;;;11.60;80.00;;;;;;4927220;29;20023;-72
2021/03/10 11:56:50;;;;;;;31.83;19.05;;;11.70;80.70;;;;;;4929094;29;20145;-72
2021/03/10 11:59:16;;;;;;;32.35;19.55;;;11.80;81.10;;;;;;4928530;29;20111;-73
2021/03/10 12:01:42;;;;;;;35.95;19.98;;;11.90;79.80;;;;;;4930670;29;20478;-73
2021/03/10 12:04:07;;;;;;;29.75;17.48;;;12.00;78.90;;;;;;4931846;29;20635;-73
2021/03/10 12:06:33;;;;;;;32.35;20.38;;;12.00;77.30;;;;;;4920447;29;20493;-72
2021/03/10 12:08:59;;;;;;;33.60;18.75;;;12.00;78.10;;;;;;4953261;28;20019;-72
2021/03/10 12:11:24;;;;;;;33.13;19.60;;;12.10;77.10;;;;;;4953033;29;20385;-73
2021/03/10 12:13:50;;;;;;;35.97;19.30;;;12.20;75.60;;;;;;4953622;28;20023;-73
2021/03/10 12:16:16;;;;;;;36.80;19.17;;;12.30;75.40;;;;;;4951093;29;20023;-73
2021/03/10 12:18:41;;;;;;;34.42;19.73;;;12.30;75.20;;;;;;4952196;29;20024;-78
2021/03/10 12:21:07;;;;;;;34.22;19.77;;;12.40;74.50;;;;;;4932622;29;20030;-76
2021/03/10 12:23:34;;;;;;;37.00;20.90;;;12.40;74.00;;;;;;4930019;29;20032;-77
2021/03/10 12:26:00;;;;;;;30.63;18.55;;;12.50;74.10;;;;;;4918152;29;20032;-78
2021/03/10 12:28:26;;;;;;;33.30;19.35;;;12.50;73.00;;;;;;4917903;29;20030;-77
2021/03/10 12:30:52;;;;;;;33.75;18.38;;;12.50;71.50;;;;;;4917431;29;20031;-77
2021/03/10 12:33:18;;;;;;;41.20;19.92;;;12.60;72.00;;;;;;4935139;29;20031;-77
2021/03/10 12:35:43;;;;;;;32.85;17.20;;;12.60;71.60;;;;;;4934466;29;20389;-77
2021/03/10 12:38:09;;;;;;;26.80;15.85;;;12.60;69.10;;;;;;4917616;29;20020;-78
2021/03/10 12:40:35;;;;;;;31.05;18.30;;;12.60;67.80;;;;;;4935083;29;20398;-77
2021/03/10 12:43:00;;;;;;;31.38;19.00;;;12.70;69.60;;;;;;4917428;29;20024;-76
2021/03/10 12:45:26;;;;;;;32.05;17.65;;;12.70;69.70;;;;;;4934971;29;20028;-77
2021/03/10 12:47:52;;;;;;;35.05;17.40;;;12.70;67.40;;;;;;4934177;29;20028;-77
2021/03/10 12:50:18;;;;;;;28.00;17.85;;;12.80;67.10;;;;;;4917383;29;20028;-77
2021/03/10 12:52:47;;;;;;;26.25;16.08;;;12.90;67.80;;;;;;4934585;29;20044;-77
2021/03/10 12:55:13;;;;;;;25.90;14.90;;;12.90;65.10;;;;;;4933998;29;20391;-76
2021/03/10 12:57:39;;;;;;;31.85;17.88;;;12.90;62.70;;;;;;4931718;29;20034;-78
2021/03/10 13:00:08;;;;;;;30.27;17.17;;;12.90;64.70;;;;;;4927493;29;20020;-77
2021/03/10 13:02:34;;;;;;;29.83;15.45;;;13.00;65.10;;;;;;4914116;29;20061;-77
2021/03/10 13:05:00;;;;;;;23.73;14.98;;;13.00;61.70;;;;;;4909431;29;20047;-77
2021/03/10 13:07:25;;;;;;;29.55;17.17;;;13.10;62.30;;;;;;4914616;29;20037;-77
2021/03/10 13:09:51;;;;;;;29.92;18.10;;;13.10;62.80;;;;;;4911068;29;20035;-79
2021/03/10 13:12:17;;;;;;;29.13;17.58;;;13.20;64.10;;;;;;4912526;29;20086;-78
2021/03/10 13:14:43;;;;;;;28.45;17.55;;;13.20;64.30;;;;;;4929786;29;20028;-77
2021/03/10 13:17:13;;;;;;;26.35;16.20;;;13.20;62.70;;;;;;4914337;29;20028;-77
2021/03/10 13:19:39;;;;;;;35.42;18.42;;;13.10;61.40;;;;;;4926980;29;20034;-73
2021/03/10 13:22:04;;;;;;;29.17;17.60;;;13.10;63.40;;;;;;4930065;29;20015;-73
2021/03/10 13:24:30;;;;;;;26.88;17.23;;;13.10;61.60;;;;;;4910464;29;20505;-76
2021/03/10 13:26:56;;;;;;;26.58;15.40;;;13.00;62.00;;;;;;4919595;29;20370;-76
2021/03/10 13:29:24;;;;;;;42.45;18.85;;;12.90;60.20;;;;;;4915120;29;20046;-77
2021/03/10 13:31:50;;;;;;;30.05;18.25;;;13.10;62.90;;;;;;4916201;29;20058;-76
2021/03/10 13:34:16;;;;;;;29.05;17.15;;;13.00;62.00;;;;;;4932916;29;20505;-76
2021/03/10 13:36:42;;;;;;;26.73;16.33;;;13.00;63.70;;;;;;4915727;29;20031;-76
2021/03/10 13:39:08;;;;;;;102.47;56.00;;;13.10;61.90;;;;;;4933072;29;20028;-77
2021/03/10 13:41:34;;;;;;;60.75;37.38;;;13.00;60.50;;;;;;4932371;29;20032;-76
2021/03/10 13:44:00;;;;;;;28.48;19.13;;;13.10;62.20;;;;;;4915522;29;20064;-73
2021/03/10 13:46:26;;;;;;;32.88;19.02;;;13.00;63.20;;;;;;4931662;29;20031;-73
2021/03/10 13:48:51;;;;;;;27.23;15.93;;;12.90;62.20;;;;;;4935080;29;20042;-73
2021/03/10 13:51:17;;;;;;;28.88;17.13;;;12.90;60.60;;;;;;4937084;29;20062;-73
2021/03/10 13:53:43;;;;;;;27.85;18.80;;;12.80;62.10;;;;;;4934992;29;20019;-73
2021/03/10 13:56:09;;;;;;;35.60;20.58;;;12.70;63.90;;;;;;4933798;29;20059;-73
2021/03/10 13:58:35;;;;;;;32.30;19.55;;;12.80;65.90;;;;;;4932067;29;20026;-73
2021/03/10 14:01:00;;;;;;;28.63;18.73;;;12.70;66.20;;;;;;4914476;29;20028;-72
2021/03/10 14:03:26;;;;;;;33.72;18.45;;;12.70;65.70;;;;;;4914870;29;20606;-73
2021/03/10 14:05:52;;;;;;;27.60;17.13;;;12.80;66.70;;;;;;4931760;29;20031;-73
2021/03/10 14:08:18;;;;;;;31.65;17.55;;;12.70;64.70;;;;;;4931058;29;20079;-72
2021/03/10 14:10:44;;;;;;;27.13;16.33;;;12.70;62.30;;;;;;4932275;29;20027;-72
2021/03/10 14:13:09;;;;;;;34.42;20.25;;;12.70;62.20;;;;;;4939123;29;20047;-73
2021/03/10 14:15:35;;;;;;;30.45;18.15;;;12.70;64.20;;;;;;4932265;29;20123;-72
2021/03/10 14:18:01;;;;;;;30.70;16.98;;;12.70;63.70;;;;;;4931342;29;20028;-73
2021/03/10 14:20:28;;;;;;;28.77;17.27;;;12.70;61.70;;;;;;4926687;29;20566;-72
2021/03/10 14:22:54;;;;;;;33.58;19.70;;;12.70;60.60;;;;;;4929988;29;20028;-73
2021/03/10 14:25:20;;;;;;;31.17;17.65;;;12.70;63.30;;;;;;4929758;29;20359;-72
2021/03/10 14:27:46;;;;;;;28.40;18.13;;;12.70;61.40;;;;;;4913341;29;20032;-73
2021/03/10 14:30:13;;;;;;;27.65;17.63;;;12.70;61.90;;;;;;4911043;29;20043;-73
2021/03/10 14:32:46;;;;;;;28.30;17.13;;;12.70;61.60;;;;;;4916926;29;20391;-73
2021/03/10 14:35:17;;;;;;;29.13;18.83;;;12.70;60.80;;;;;;4928348;29;20020;-73
2021/03/10 14:37:43;;;;;;;31.63;18.23;;;12.70;62.20;;;;;;4934622;29;20020;-73
2021/03/10 14:40:14;;;;;;;29.73;19.05;;;12.60;62.80;;;;;;4934470;29;20024;-72
2021/03/10 14:42:40;;;;;;;36.15;20.20;;;12.60;62.50;;;;;;4934157;29;20047;-73
2021/03/10 14:45:08;;;;;;;33.35;20.38;;;12.60;64.00;;;;;;4917843;29;20041;-72
2021/03/10 14:47:34;;;;;;;33.33;19.90;;;12.50;64.20;;;;;;4917307;29;20473;-72
2021/03/10 14:50:09;;;;;;;35.05;19.05;;;12.50;64.60;;;;;;4936774;29;20035;-73
2021/03/10 14:52:35;;;;;;;37.28;22.88;;;12.60;64.70;;;;;;4940067;29;20622;-73
2021/03/10 14:55:02;;;;;;;41.55;26.00;;;12.50;63.30;;;;;;4914660;29;20055;-79
2021/03/10 14:57:28;;;;;;;40.05;23.63;;;12.60;63.20;;;;;;4912027;29;20124;-73
2021/03/10 14:59:54;;;;;;;34.38;20.45;;;12.60;64.20;;;;;;4927555;29;20122;-73
2021/03/10 15:02:19;;;;;;;28.58;17.73;;;12.60;63.10;;;;;;4913434;29;20034;-72
2021/03/10 15:04:45;;;;;;;32.05;19.90;;;12.60;60.60;;;;;;4933146;29;20035;-73
2021/03/10 15:07:11;;;;;;;30.85;19.42;;;12.60;62.00;;;;;;4931541;29;20023;-73
2021/03/10 15:09:37;;;;;;;35.05;18.73;;;12.60;62.50;;;;;;4916067;29;20114;-73
2021/03/10 15:12:03;;;;;;;33.67;20.00;;;12.60;61.70;;;;;;4931613;29;20075;-73
2021/03/10 15:14:29;;;;;;;33.25;20.77;;;12.50;63.80;;;;;;4933184;29;20058;-73
2021/03/10 15:16:55;;;;;;;31.60;19.60;;;12.50;65.20;;;;;;4931365;29;20047;-74
2021/03/10 15:19:21;;;;;;;33.47;19.50;;;12.50;66.30;;;;;;4915872;29;20028;-73
2021/03/10 15:21:46;;;;;;;32.90;19.88;;;12.50;66.00;;;;;;4932438;29;20035;-72
2021/03/10 15:24:16;;;;;;;35.40;20.35;;;12.50;66.00;;;;;;4934450;29;20027;-73
2021/03/10 15:26:42;;;;;;;39.03;20.98;;;12.40;66.40;;;;;;4931550;29;20039;-73
2021/03/10 15:29:08;;;;;;;36.92;21.67;;;12.40;66.80;;;;;;4931926;29;20023;-73
2021/03/10 15:31:35;;;;;;;33.85;21.20;;;12.40;66.50;;;;;;4929761;29;20508;-73
2021/03/10 15:34:00;;;;;;;35.60;21.05;;;12.40;67.00;;;;;;4932165;29;20036;-73
2021/03/10 15:36:26;;;;;;;38.13;20.77;;;12.40;67.20;;;;;;4931672;29;20071;-73
2021/03/10 15:38:52;;;;;;;36.92;21.05;;;12.40;67.50;;;;;;4932767;29;20031;-74
2021/03/10 15:41:18;;;;;;;37.45;21.73;;;12.30;68.50;;;;;;4912143;29;20144;-73
2021/03/10 15:43:43;;;;;;;34.47;20.80;;;12.30;67.10;;;;;;4914361;29;20052;-73
2021/03/10 15:46:09;;;;;;;34.75;21.25;;;12.30;66.80;;;;;;4929945;29;20640;-72
2021/03/10 15:48:35;;;;;;;33.38;20.80;;;12.30;66.10;;;;;;4914789;29;20035;-73
2021/03/10 15:51:01;;;;;;;38.38;20.08;;;12.30;65.80;;;;;;4914436;29;20091;-73
2021/03/10 15:53:26;;;;;;;37.17;20.13;;;12.30;66.20;;;;;;4915034;29;20030;-73
2021/03/10 15:55:52;;;;;;;30.90;19.40;;;12.30;65.30;;;;;;4913743;29;20118;-73
2021/03/10 15:58:18;;;;;;;35.20;20.20;;;12.40;64.80;;;;;;4931453;29;20076;-73
2021/03/10 16:00:44;;;;;;;35.03;20.83;;;12.40;65.00;;;;;;4913416;29;20732;-73
2021/03/10 16:03:10;;;;;;;37.85;21.27;;;12.40;65.50;;;;;;4915255;29;20076;-73
2021/03/10 16:05:36;;;;;;;34.45;20.88;;;12.40;65.50;;;;;;4928802;29;20098;-73
2021/03/10 16:08:02;;;;;;;37.75;19.27;;;12.40;64.70;;;;;;4931817;29;20146;-73
2021/03/10 16:10:30;;;;;;;34.50;20.08;;;12.40;64.30;;;;;;4930895;29;20413;-73
2021/03/10 16:12:56;;;;;;;34.55;21.63;;;12.40;65.20;;;;;;4914381;29;20051;-73
2021/03/10 16:15:22;;;;;;;32.92;19.58;;;12.40;65.20;;;;;;4937277;29;20011;-73
2021/03/10 16:17:48;;;;;;;39.50;21.17;;;12.40;65.00;;;;;;4951410;29;20030;-73
2021/03/10 16:20:15;;;;;;;34.67;21.02;;;12.40;64.90;;;;;;4930898;29;20509;-73
2021/03/10 16:22:40;;;;;;;37.15;21.48;;;12.30;64.70;;;;;;4944338;29;20107;-73
2021/03/10 16:25:07;;;;;;;39.40;20.55;;;12.20;63.70;;;;;;4912407;29;20052;-73
2021/03/10 16:27:33;;;;;;;30.13;18.80;;;12.30;63.20;;;;;;4914694;29;20027;-73
2021/03/10 16:29:59;;;;;;;35.70;19.77;;;12.20;63.00;;;;;;4918529;29;20020;-73
2021/03/10 16:32:25;;;;;;;32.78;19.33;;;12.20;63.30;;;;;;4912568;29;20028;-72
2021/03/10 16:34:50;;;;;;;36.30;20.13;;;12.20;63.50;;;;;;4931935;29;20035;-73
2021/03/10 16:37:16;;;;;;;34.85;20.83;;;12.10;63.20;;;;;;4931093;29;20596;-73
2021/03/10 16:39:42;;;;;;;39.42;21.02;;;12.10;64.10;;;;;;4930057;29;20027;-73
2021/03/10 16:42:09;;;;;;;39.60;24.00;;;12.00;64.50;;;;;;4930806;29;20031;-73
2021/03/10 16:44:37;;;;;;;39.75;22.90;;;12.00;64.60;;;;;;4928327;29;20051;-73
2021/03/10 16:47:05;;;;;;;55.00;28.65;;;12.00;64.50;;;;;;4930336;29;20046;-73
2021/03/10 16:49:32;;;;;;;48.22;24.38;;;11.90;65.40;;;;;;4930736;29;20039;-73
2021/03/10 16:51:57;;;;;;;46.67;24.55;;;11.80;66.20;;;;;;4932469;29;20055;-73
2021/03/10 16:54:23;;;;;;;42.65;22.60;;;11.70;66.90;;;;;;4929735;29;20762;-73
2021/03/10 16:56:49;;;;;;;34.97;20.38;;;11.60;67.30;;;;;;4916354;29;20026;-78
2021/03/10 16:59:15;;;;;;;41.83;21.48;;;11.60;68.20;;;;;;4931825;29;20478;-78
2021/03/10 17:01:41;;;;;;;34.97;21.08;;;11.50;68.60;;;;;;4930777;29;20036;-78
2021/03/10 17:04:06;;;;;;;75.88;38.78;;;11.40;69.00;;;;;;4928786;29;20028;-78
2021/03/10 17:06:32;;;;;;;102.43;52.95;;;11.30;69.40;;;;;;4928254;29;20027;-78
2021/03/10 17:08:58;;;;;;;109.18;49.63;;;11.20;70.50;;;;;;4934124;29;20035;-78
2021/03/10 17:11:24;;;;;;;98.05;50.38;;;11.10;71.20;;;;;;4916612;29;20048;-78
2021/03/10 17:13:50;;;;;;;64.82;33.25;;;11.00;71.80;;;;;;4934466;29;20031;-78
2021/03/10 17:16:16;;;;;;;57.30;31.00;;;10.90;72.60;;;;;;4933307;29;20024;-81
2021/03/10 17:18:42;;;;;;;42.17;24.63;;;10.70;72.00;;;;;;4927387;29;20606;-78
2021/03/10 17:21:10;;;;;;;45.28;24.50;;;10.70;72.30;;;;;;4929589;29;20024;-81
2021/03/10 17:23:35;;;;;;;45.83;23.15;;;10.60;72.70;;;;;;4913202;29;20066;-73
2021/03/10 17:26:01;;;;;;;40.13;24.35;;;10.50;73.20;;;;;;4912324;29;20055;-73
2021/03/10 17:28:27;;;;;;;42.00;22.33;;;10.40;73.30;;;;;;4909826;29;20027;-73
2021/03/10 17:30:53;;;;;;;36.67;22.05;;;10.40;73.50;;;;;;4930638;29;20027;-73
2021/03/10 17:33:18;;;;;;;49.97;24.40;;;10.30;73.70;;;;;;4932026;29;20456;-72
2021/03/10 17:35:44;;;;;;;41.97;23.83;;;10.30;74.00;;;;;;4932470;29;20020;-72
2021/03/10 17:38:10;;;;;;;49.17;24.02;;;10.20;74.20;;;;;;4932947;29;20052;-73
2021/03/10 17:40:36;;;;;;;44.08;22.67;;;10.20;74.30;;;;;;4933313;29;20106;-73
2021/03/10 17:43:01;;;;;;;42.03;23.67;;;10.10;74.30;;;;;;4915533;29;20035;-73
2021/03/10 17:45:28;;;;;;;35.97;20.58;;;10.10;74.40;;;;;;4932703;29;20051;-73
2021/03/10 17:47:54;;;;;;;39.35;22.73;;;10.00;74.30;;;;;;4933315;29;20088;-73
2021/03/10 17:50:20;;;;;;;40.40;22.23;;;10.00;74.30;;;;;;4932423;29;20027;-73
2021/03/10 17:52:46;;;;;;;40.40;20.65;;;10.00;74.40;;;;;;4932923;29;20096;-73
2021/03/10 17:58:54;;;;;;;21.95;15.48;;;10.30;80.60;;;;;;4934152;29;20135;-79
2021/03/10 18:01:20;;;;;;;30.02;19.52;;;10.40;78.10;;;;;;4933825;29;20394;-79
2021/03/10 18:03:45;;;;;;;31.85;18.38;;;10.50;76.80;;;;;;4917055;29;20031;-80
2021/03/10 18:06:11;;;;;;;33.38;21.20;;;10.60;77.60;;;;;;4933146;29;20047;-80
2021/03/10 18:08:38;;;;;;;42.88;21.83;;;10.30;73.60;;;;;;4916805;29;20524;-80
2021/03/10 18:11:07;;;;;;;35.97;21.92;;;10.20;73.50;;;;;;4916813;29;20514;-80
2021/03/10 18:13:33;;;;;;;47.25;22.75;;;10.00;74.20;;;;;;4933424;29;20028;-80
2021/03/10 18:15:59;;;;;;;45.80;22.40;;;9.90;74.50;;;;;;4932581;29;20027;-80
2021/03/10 18:18:30;;;;;;;39.95;22.27;;;9.80;74.80;;;;;;4916657;29;20024;-80
2021/03/10 18:20:55;;;;;;;46.80;23.48;;;9.70;75.00;;;;;;4933547;29;20118;-76
2021/03/10 18:23:21;;;;;;;38.92;23.55;;;9.70;74.80;;;;;;4933383;29;20115;-78
2021/03/10 18:25:48;;;;;;;43.13;23.45;;;9.60;75.00;;;;;;4933288;29;20092;-81
2021/03/10 18:28:17;;;;;;;41.22;24.15;;;9.60;74.80;;;;;;4932935;29;20031;-80
2021/03/10 18:30:43;;;;;;;39.03;22.05;;;9.60;75.00;;;;;;4932920;29;20032;-80
2021/03/10 18:33:09;;;;;;;39.13;22.00;;;9.50;75.20;;;;;;4932819;29;20063;-79
2021/03/10 18:35:36;;;;;;;41.28;22.17;;;9.40;76.20;;;;;;4915969;29;20028;-80
2021/03/10 18:38:02;;;;;;;39.15;23.30;;;9.30;75.50;;;;;;4915895;29;20027;-79
2021/03/10 18:40:28;;;;;;;38.92;21.85;;;9.30;75.70;;;;;;4915888;29;20110;-80
2021/03/10 18:42:54;;;;;;;43.63;23.15;;;9.20;75.70;;;;;;4931480;29;20107;-79
2021/03/10 18:45:21;;;;;;;38.40;22.88;;;9.20;75.80;;;;;;4931685;29;20031;-79
2021/03/10 18:47:48;;;;;;;38.13;22.83;;;9.20;76.10;;;;;;4931354;29;20028;-79
2021/03/10 18:50:15;;;;;;;39.53;23.63;;;9.10;76.00;;;;;;4931635;29;20031;-79
2021/03/10 18:52:42;;;;;;;43.08;22.35;;;9.10;76.00;;;;;;4931697;29;20099;-79
2021/03/10 18:55:09;;;;;;;37.08;22.17;;;9.10;76.20;;;;;;4930463;29;20081;-79
2021/03/10 18:57:36;;;;;;;41.03;22.90;;;9.10;76.20;;;;;;4914411;29;20024;-79
2021/03/10 19:00:05;;;;;;;45.08;23.98;;;8.90;76.60;;;;;;4932201;29;20043;-79
2021/03/10 19:02:32;;;;;;;39.53;22.92;;;8.90;76.50;;;;;;4915449;29;20023;-79
2021/03/10 19:04:58;;;;;;;38.22;22.23;;;8.90;76.70;;;;;;4931395;29;20027;-80
2021/03/10 19:07:24;;;;;;;38.63;22.67;;;8.80;77.00;;;;;;4931569;29;20024;-78
2021/03/10 19:09:51;;;;;;;42.55;23.02;;;8.80;76.80;;;;;;4915706;29;20028;-79
2021/03/10 19:12:16;;;;;;;38.95;22.90;;;8.80;76.90;;;;;;4932322;29;20083;-79
2021/03/10 19:14:51;;;;;;;38.63;22.73;;;8.70;77.00;;;;;;4931938;29;20059;-80
2021/03/10 19:17:17;;;;;;;35.75;22.40;;;8.70;77.40;;;;;;4915965;29;20073;-80
2021/03/10 19:19:43;;;;;;;38.33;22.95;;;8.60;77.60;;;;;;4935812;29;20035;-80
2021/03/10 19:22:10;;;;;;;39.75;22.58;;;8.60;77.70;;;;;;4934422;29;20020;-73
2021/03/10 19:24:36;;;;;;;39.78;22.65;;;8.50;77.70;;;;;;4923596;29;20032;-72
2021/03/10 19:27:02;;;;;;;45.13;23.58;;;8.50;77.90;;;;;;4923057;29;20030;-73
2021/03/10 19:29:28;;;;;;;41.20;23.33;;;8.50;78.10;;;;;;4935869;29;20130;-74
2021/03/10 19:31:59;;;;;;;48.33;23.50;;;8.50;78.20;;;;;;4935493;29;20109;-73
2021/03/10 19:34:29;;;;;;;40.60;23.95;;;8.50;78.20;;;;;;4926188;29;20493;-73
2021/03/10 19:36:56;;;;;;;45.00;24.23;;;8.50;78.30;;;;;;4918094;29;20035;-73
2021/03/10 19:39:22;;;;;;;41.53;23.13;;;8.40;78.20;;;;;;4928568;29;20127;-73
2021/03/10 19:41:48;;;;;;;38.78;22.65;;;8.40;78.50;;;;;;4918607;29;20452;-73
2021/03/10 19:44:14;;;;;;;42.15;24.33;;;8.40;79.40;;;;;;4927496;29;20042;-73
2021/03/10 19:46:40;;;;;;;40.38;23.95;;;8.30;78.50;;;;;;4928058;29;20051;-73
2021/03/10 19:49:06;;;;;;;40.15;23.30;;;8.30;78.60;;;;;;4930075;29;20036;-73
2021/03/10 19:51:32;;;;;;;37.80;22.85;;;8.30;78.70;;;;;;4932537;29;20035;-73
2021/03/10 19:53:58;;;;;;;44.10;23.38;;;8.20;79.10;;;;;;4930758;29;20038;-73
2021/03/10 19:56:24;;;;;;;42.22;23.35;;;8.20;78.90;;;;;;4930139;29;20563;-73
2021/03/10 19:58:49;;;;;;;41.08;23.77;;;8.20;79.10;;;;;;4930535;29;20581;-72
2021/03/10 20:01:15;;;;;;;48.78;25.77;;;8.10;79.20;;;;;;4932016;29;20035;-73
2021/03/10 20:03:41;;;;;;;41.53;24.42;;;8.10;79.10;;;;;;4937842;29;20397;-73
2021/03/10 20:06:07;;;;;;;45.00;24.38;;;8.10;79.30;;;;;;4913693;29;20023;-73
2021/03/10 20:08:33;;;;;;;38.60;23.67;;;8.10;79.40;;;;;;4931519;29;20111;-73
2021/03/10 20:10:59;;;;;;;40.03;23.50;;;8.10;79.50;;;;;;4931031;29;20130;-72
2021/03/10 20:13:24;;;;;;;43.92;23.92;;;8.00;79.50;;;;;;4930715;29;20431;-73
2021/03/10 20:15:50;;;;;;;39.40;22.70;;;8.10;79.40;;;;;;4913787;29;20042;-72
2021/03/10 20:18:17;;;;;;;47.88;24.90;;;8.00;79.10;;;;;;4913490;29;20024;-73
2021/03/10 20:20:43;;;;;;;40.45;23.15;;;8.00;79.20;;;;;;4931803;29;20030;-72
2021/03/10 20:23:09;;;;;;;43.50;24.33;;;8.00;79.30;;;;;;4929303;29;20065;-73
2021/03/10 20:25:36;;;;;;;44.92;23.60;;;8.00;79.50;;;;;;4936078;29;20031;-73
2021/03/10 20:28:03;;;;;;;40.80;24.02;;;8.00;79.30;;;;;;4948695;28;20042;-73
2021/03/10 20:30:29;;;;;;;42.50;22.25;;;8.00;79.10;;;;;;4949030;29;20165;-73
2021/03/10 20:32:56;;;;;;;42.72;23.88;;;8.00;79.10;;;;;;4942825;29;20682;-73
2021/03/10 20:35:24;;;;;;;44.47;23.42;;;8.00;78.70;;;;;;4928869;29;20036;-74
2021/03/10 20:37:51;;;;;;;43.28;22.67;;;8.00;78.60;;;;;;4912238;29;20632;-73
2021/03/10 20:40:18;;;;;;;41.90;23.15;;;8.00;79.70;;;;;;4913356;29;20031;-73
2021/03/10 20:42:46;;;;;;;40.90;23.85;;;7.90;78.90;;;;;;4912211;29;20032;-73
2021/03/10 20:45:13;;;;;;;37.72;21.77;;;7.90;78.90;;;;;;4929483;29;20082;-73
2021/03/10 20:47:39;;;;;;;40.30;23.27;;;7.90;79.00;;;;;;4912623;29;20024;-72
2021/03/10 20:50:08;;;;;;;41.08;22.20;;;7.90;79.00;;;;;;4912423;29;20054;-73
2021/03/10 20:52:35;;;;;;;43.10;23.10;;;7.90;79.10;;;;;;4911869;29;20123;-72
2021/03/10 20:55:03;;;;;;;36.63;21.58;;;7.80;79.10;;;;;;4928699;29;20069;-73
2021/03/10 20:57:28;;;;;;;38.47;22.25;;;7.80;79.10;;;;;;4912431;29;20038;-73
2021/03/10 20:59:54;;;;;;;40.58;23.42;;;7.80;79.20;;;;;;4911799;29;20032;-73
2021/03/10 21:02:20;;;;;;;37.53;21.98;;;7.70;79.30;;;;;;4927945;29;20027;-73
2021/03/10 21:04:46;;;;;;;43.22;23.95;;;7.70;79.40;;;;;;4928042;29;20462;-73
2021/03/10 21:07:13;;;;;;;41.72;23.58;;;7.70;79.30;;;;;;4912037;29;20118;-73
2021/03/10 21:09:38;;;;;;;41.67;23.15;;;7.80;79.30;;;;;;4929481;29;20028;-72
2021/03/10 21:12:06;;;;;;;38.72;21.75;;;7.80;79.20;;;;;;4928332;29;20040;-72
2021/03/10 21:14:32;;;;;;;46.63;22.70;;;7.80;79.10;;;;;;4928897;29;20062;-73
2021/03/10 21:16:59;;;;;;;40.83;22.58;;;7.70;78.80;;;;;;4910078;29;20027;-73
2021/03/10 21:19:24;;;;;;;43.83;23.70;;;7.80;79.20;;;;;;4928955;29;20020;-72
2021/03/10 21:21:50;;;;;;;41.92;21.80;;;7.80;79.00;;;;;;4928561;29;20074;-73
2021/03/10 21:24:16;;;;;;;38.65;23.25;;;7.80;78.90;;;;;;4928259;29;20039;-72
2021/03/10 21:26:42;;;;;;;45.47;24.48;;;7.70;79.00;;;;;;4923425;29;20043;-74
2021/03/10 21:29:07;;;;;;;41.63;22.23;;;7.70;79.10;;;;;;4909497;29;20026;-73
2021/03/10 21:31:34;;;;;;;37.90;21.98;;;7.70;79.00;;;;;;4926755;29;20114;-72
2021/03/10 21:33:59;;;;;;;43.05;21.55;;;7.70;79.10;;;;;;4928864;29;20051;-73
2021/03/10 21:36:25;;;;;;;41.88;22.65;;;7.70;79.00;;;;;;4927056;29;20076;-73
2021/03/10 21:38:51;;;;;;;45.78;24.58;;;7.70;79.00;;;;;;4927236;29;20545;-73
2021/03/10 21:41:18;;;;;;;40.45;22.48;;;7.70;78.80;;;;;;4925491;29;20028;-73
2021/03/10 21:43:45;;;;;;;38.58;23.05;;;7.70;78.80;;;;;;4927781;29;20024;-74
2021/03/10 21:46:11;;;;;;;41.55;22.42;;;7.60;79.00;;;;;;4927257;29;20036;-74
2021/03/10 21:48:37;;;;;;;43.08;23.52;;;7.60;79.40;;;;;;4909407;29;20030;-74
2021/03/10 21:51:04;;;;;;;46.28;24.33;;;7.60;79.30;;;;;;4927728;29;20031;-73
2021/03/10 21:53:31;;;;;;;45.35;23.45;;;7.60;79.40;;;;;;4928336;29;20023;-74
2021/03/10 21:55:57;;;;;;;41.28;23.90;;;7.50;79.50;;;;;;4930806;29;20440;-75
2021/03/10 21:58:23;;;;;;;40.08;22.45;;;7.50;79.80;;;;;;4931348;29;20034;-73
2021/03/10 22:00:49;;;;;;;46.95;23.60;;;7.50;79.60;;;;;;4929435;29;20031;-74
2021/03/10 22:03:14;;;;;;;93.88;50.20;;;7.60;79.80;;;;;;4929239;29;20035;-74
2021/03/10 22:05:40;;;;;;;105.20;57.75;;;7.60;80.20;;;;;;4930162;29;20063;-74
2021/03/10 22:08:06;;;;;;;77.97;41.08;;;7.60;80.00;;;;;;4928766;29;20532;-74
2021/03/10 22:10:31;;;;;;;63.80;36.53;;;7.60;79.80;;;;;;4929427;29;20504;-74
2021/03/10 22:12:57;;;;;;;45.60;25.75;;;7.60;79.90;;;;;;4931335;29;20059;-81
2021/03/10 22:15:23;;;;;;;42.60;24.45;;;7.60;79.90;;;;;;4933292;29;20024;-80
2021/03/10 22:17:48;;;;;;;43.22;24.50;;;7.50;79.90;;;;;;4933618;29;20038;-80
2021/03/10 22:20:15;;;;;;;47.05;25.25;;;7.50;80.10;;;;;;4933493;29;20417;-81
2021/03/10 22:22:41;;;;;;;46.28;23.88;;;7.50;80.10;;;;;;4932281;29;20023;-80
2021/03/10 22:25:07;;;;;;;45.47;24.85;;;7.50;80.20;;;;;;4933635;29;20507;-81
2021/03/10 22:27:33;;;;;;;46.78;24.60;;;7.50;80.30;;;;;;4916144;29;20434;-81
2021/03/10 22:29:58;;;;;;;49.25;24.33;;;7.50;80.40;;;;;;4932341;29;20031;-80
2021/03/10 22:32:24;;;;;;;46.88;25.30;;;7.50;80.30;;;;;;4916702;29;20035;-80
2021/03/10 22:34:50;;;;;;;47.25;24.98;;;7.50;80.20;;;;;;4916750;29;20051;-82
2021/03/10 22:37:16;;;;;;;128.02;66.78;;;7.50;80.40;;;;;;4917471;29;20390;-81
2021/03/10 22:39:42;;;;;;;44.05;26.33;;;7.50;80.90;;;;;;4914472;29;20071;-80
2021/03/10 22:42:08;;;;;;;50.65;26.85;;;7.40;81.20;;;;;;4914429;29;20084;-80
2021/03/10 22:44:33;;;;;;;45.25;25.70;;;7.30;81.40;;;;;;4914651;29;20063;-80
2021/03/10 22:46:59;;;;;;;44.75;25.65;;;7.30;81.50;;;;;;4933263;29;20050;-82
2021/03/10 22:49:25;;;;;;;46.75;25.73;;;7.20;81.60;;;;;;4933218;29;20028;-81
2021/03/10 22:51:51;;;;;;;49.33;26.20;;;7.20;81.70;;;;;;4933865;29;20691;-81
2021/03/10 22:54:16;;;;;;;52.30;27.42;;;7.10;82.00;;;;;;4936941;29;20028;-80
2021/03/10 22:56:42;;;;;;;40.50;24.08;;;7.10;82.00;;;;;;4937451;29;20054;-80
2021/03/10 22:59:08;;;;;;;41.70;23.60;;;7.10;82.10;;;;;;4936845;29;20035;-80
2021/03/10 23:01:34;;;;;;;46.53;26.10;;;7.20;81.90;;;;;;4937260;29;20032;-79
2021/03/10 23:04:00;;;;;;;47.83;25.33;;;7.10;81.90;;;;;;4936991;29;20575;-80
2021/03/10 23:06:26;;;;;;;46.83;26.25;;;7.10;82.20;;;;;;4920265;29;20032;-80
2021/03/10 23:08:52;;;;;;;42.00;23.98;;;7.10;82.40;;;;;;4937344;29;20387;-82
2021/03/10 23:11:21;;;;;;;48.35;26.67;;;7.00;82.50;;;;;;4919183;29;20051;-79
2021/03/10 23:13:48;;;;;;;51.80;26.05;;;7.10;82.70;;;;;;4916681;29;20031;-82
2021/03/10 23:16:14;;;;;;;42.28;24.33;;;7.00;82.80;;;;;;4920134;29;20039;-80
2021/03/10 23:18:40;;;;;;;44.38;25.73;;;7.00;82.70;;;;;;4919583;29;20028;-81
2021/03/10 23:21:06;;;;;;;50.72;26.80;;;7.00;82.60;;;;;;4936759;29;20023;-80
2021/03/10 23:23:34;;;;;;;45.42;26.23;;;7.10;82.40;;;;;;4936520;29;20024;-81
2021/03/10 23:26:00;;;;;;;44.75;25.00;;;7.10;82.30;;;;;;4919716;29;20038;-80
2021/03/10 23:28:26;;;;;;;43.42;24.38;;;7.10;82.50;;;;;;4936968;29;20060;-81
2021/03/10 23:30:52;;;;;;;48.35;25.20;;;7.00;82.60;;;;;;4919357;29;20023;-81
2021/03/10 23:33:18;;;;;;;68.55;37.05;;;7.00;82.70;;;;;;4936154;29;20019;-82
2021/03/10 23:35:46;;;;;;;120.60;64.68;;;7.00;83.10;;;;;;4919590;29;20138;-80
2021/03/10 23:38:12;;;;;;;198.95;122.18;;;6.90;83.00;;;;;;4936563;29;20024;-81